Flight Track Log - Related Links

Times and Time Zones

All times are in EDT time to prevent confusion due to time zone crossing. See the DRL45 flight status page for this flight to view local times or setup timezone preferences in your user account.

Time Position Orientation Groundspeed Altitude Reporting Facility
EDT Latitude Longitude Course Direction KTS MPH feet Rate Location/Type
Tue 12:46:17 PM 36.2136 -95.8817 356° North 162 186 1,500  Level Kansas City Center
Tue 12:46:47 PM 36.2389 -95.8836 356° North 184 212 2,900 2,800 Climbing Kansas City Center
Tue 12:47:47 PM 36.2533 -95.9542 284° West 252 290 5,700 2,444 Climbing Kansas City Center
Tue 12:48:08 PM 36.2547 -95.9725 275° West 234 269 6,200 2,780 Climbing Kansas City Center
Tue 12:49:09 PM 36.2517 -96.0672 268° West 265 305 9,500 3,840 Climbing Kansas City Center
Tue 12:50:13 PM 36.2472 -96.1875 267° West 286 329 14,200 3,216 Climbing Kansas City Center
Tue 12:51:14 PM 36.2314 -96.3008 260° West 335 386 16,200 2,852 Climbing Kansas City Center
Tue 12:52:15 PM 36.2000 -96.4175 252° West 353 406 20,000 3,242 Climbing Kansas City Center
Tue 12:53:18 PM 36.1903 -96.5369 264° West 352 405 22,900 2,565 Climbing Kansas City Center
Tue 12:54:19 PM 36.1803 -96.6625 264° West 358 412 25,300 2,832 Climbing Kansas City Center
Tue 12:55:23 PM 36.1661 -96.8083 263° West 370 426 28,800 2,784 Climbing Kansas City Center
Tue 12:56:24 PM 36.1536 -96.9264 263° West 356 410 31,100 1,776 Climbing Kansas City Center
Tue 12:57:28 PM 36.1425 -97.0469 264° West 353 406 32,500 1,210 Climbing Kansas City Center
Tue 12:58:28 PM 36.1292 -97.1728 263° West 364 419 33,600 1,161 Climbing Kansas City Center
Tue 12:59:32 PM 36.1158 -97.3028 263° West 378 435 34,900 1,452 Climbing Kansas City Center
Tue 01:00:32 PM 36.0994 -97.4594 263° West 384 442 36,600 1,440 Climbing Kansas City Center
Tue 01:01:37 PM 36.0847 -97.5903 262° West 384 442 37,900 1,048 Climbing Kansas City Center
Tue 01:02:38 PM 36.0711 -97.7203 263° West 384 442 38,800 934 Climbing Kansas City Center
Tue 01:03:39 PM 36.0578 -97.8500 263° West 384 442 39,800 968 Climbing Kansas City Center
Tue 01:04:42 PM 36.0436 -97.9783 262° West 384 442 40,800 1,008 Climbing Kansas City Center
Tue 01:05:44 PM 36.0278 -98.1106 262° West 378 435 41,900 976 Climbing Kansas City Center
Tue 01:06:45 PM 36.0108 -98.2606 262° West 371 427 42,800 532 Climbing Kansas City Center
Tue 01:07:48 PM 35.9969 -98.3847 262° West 367 422 43,000 94 Climbing Kansas City Center
Tue 01:08:52 PM 35.9825 -98.5142 262° West 374 430 43,000  Level Kansas City Center
Tue 01:09:53 PM 35.9672 -98.6472 262° West 385 443 43,000  Level Kansas City Center
Tue 01:10:54 PM 35.9503 -98.7958 262° West 388 447 43,000  Level Kansas City Center
Tue 01:11:58 PM 35.9347 -98.9267 262° West 388 447 43,000  Level Kansas City Center
Tue 01:12:58 PM 35.9181 -99.0594 261° West 388 447 43,000  Level Kansas City Center
Tue 01:14:00 PM 35.9036 -99.1925 262° West 390 449 43,000  Level Kansas City Center
Tue 01:15:03 PM 35.8850 -99.3256 260° West 390 449 43,000  Level Kansas City Center
Tue 01:16:07 PM 35.8661 -99.4842 262° West 391 450 43,000 96 Level Kansas City Center
Tue 01:17:08 PM 35.8500 -99.6156 261° West 391 450 43,200 344 Climbing Kansas City Center
Tue 01:18:09 PM 35.8336 -99.7475 261° West 390 449 43,700 432 Climbing Kansas City Center
Tue 01:19:13 PM 35.8175 -99.8797 261° West 390 449 44,100 432 Climbing Kansas City Center
Tue 01:20:14 PM 35.8014 -100.0128 262° West 390 449 44,600 415 Climbing Kansas City Center
Tue 01:21:23 PM 35.7811 -100.1692 261° West 390 449 45,000 183 Climbing Albuquerque Center
Tue 01:22:25 PM 35.7639 -100.3017 261° West 390 449 45,000  Level Albuquerque Center
Tue 01:23:27 PM 35.7467 -100.4356 261° West 391 450 45,000  Level Albuquerque Center
Tue 01:24:29 PM 35.7283 -100.5722 261° West 398 458 45,000  Level Albuquerque Center
Tue 01:25:31 PM 35.7061 -100.7333 260° West 402 463 45,000  Level Albuquerque Center
Tue 01:26:33 PM 35.6886 -100.8700 261° West 403 464 45,000  Level Albuquerque Center
Tue 01:27:35 PM 35.6697 -101.0067 260° West 405 466 45,000  Level Albuquerque Center
Tue 01:28:36 PM 35.6517 -101.1428 261° West 405 466 45,000  Level Albuquerque Center
Tue 01:30:40 PM 35.6108 -101.4389 260° West 404 465 45,000  Level Albuquerque Center
Tue 01:31:42 PM 35.5925 -101.5719 260° West 403 464 45,000  Level Albuquerque Center
Tue 01:32:44 PM 35.5731 -101.7058 260° West 402 463 45,000  Level Albuquerque Center
Tue 01:33:46 PM 35.5544 -101.8389 260° West 402 463 45,000  Level Albuquerque Center
Tue 01:34:47 PM 35.5350 -101.9706 260° West 400 460 45,000  Level Albuquerque Center
Tue 01:35:49 PM 35.5111 -102.1297 260° West 400 460 45,000  Level Albuquerque Center
Tue 01:36:51 PM 35.4914 -102.2614 260° West 399 459 45,000  Level Albuquerque Center
Tue 01:37:53 PM 35.4722 -102.3931 260° West 398 458 45,000  Level Albuquerque Center
Tue 01:38:55 PM 35.4528 -102.5250 260° West 398 458 45,000  Level Albuquerque Center
Tue 01:39:57 PM 35.4294 -102.6764 259° West 398 458 45,000  Level Albuquerque Center
Tue 01:40:58 PM 35.4092 -102.8119 260° West 399 459 45,000  Level Albuquerque Center
Tue 01:42:00 PM 35.3883 -102.9486 259° West 401 461 45,000  Level Albuquerque Center
Tue 01:43:02 PM 35.3678 -103.0844 260° West 401 461 45,000  Level Albuquerque Center
Tue 01:44:04 PM 35.3464 -103.2228 259° West 403 464 45,000  Level Albuquerque Center
Tue 01:45:05 PM 35.3247 -103.3600 259° West 406 467 45,000  Level Albuquerque Center
Tue 01:46:07 PM 35.3036 -103.4972 259° West 406 467 45,000  Level Albuquerque Center
Tue 01:47:09 PM 35.2817 -103.6331 259° West 406 467 45,000  Level Albuquerque Center
Tue 01:48:11 PM 35.2561 -103.7919 259° West 406 467 45,000  Level Albuquerque Center
Tue 01:49:12 PM 35.2339 -103.9281 259° West 406 467 45,000  Level Albuquerque Center
Tue 01:50:14 PM 35.2144 -104.0481 259° West 412 474 45,000  Level Albuquerque Center
Tue 01:51:16 PM 35.1936 -104.1836 259° West 411 473 45,000  Level Albuquerque Center
Tue 01:52:18 PM 35.1661 -104.3472 258° West 410 472 45,000  Level Albuquerque Center
Tue 01:53:20 PM 35.1436 -104.4836 259° West 410 472 45,000  Level Albuquerque Center
Tue 01:54:21 PM 35.1172 -104.6275 257° West 411 473 45,000  Level Albuquerque Center
Tue 01:55:23 PM 35.0944 -104.7653 259° West 411 473 45,000  Level Albuquerque Center
Tue 01:56:25 PM 35.0711 -104.9025 258° West 411 473 45,000  Level Albuquerque Center
Tue 01:57:27 PM 35.0472 -105.0417 258° West 411 473 45,000  Level Albuquerque Center
Tue 01:58:28 PM 35.0228 -105.1814 258° West 413 475 45,000  Level Albuquerque Center
Tue 01:59:30 PM 34.9986 -105.3208 258° West 413 475 45,000  Level Albuquerque Center
Tue 02:00:32 PM 34.9739 -105.4606 258° West 415 478 45,000  Level Albuquerque Center
Tue 02:01:34 PM 34.9464 -105.6169 258° West 417 480 45,000  Level Albuquerque Center
Tue 02:02:36 PM 34.9211 -105.7575 258° West 419 482 45,000  Level Albuquerque Center
Tue 02:03:37 PM 34.8961 -105.8978 258° West 422 486 45,000  Level Albuquerque Center
Tue 02:04:39 PM 34.8697 -106.0417 257° West 427 491 45,000  Level Albuquerque Center
Tue 02:05:41 PM 34.8444 -106.1822 258° West 427 491 45,000  Level Albuquerque Center
Tue 02:06:43 PM 34.8183 -106.3233 257° West 427 491 45,000  Level Albuquerque Center
Tue 02:07:45 PM 34.7925 -106.4642 257° West 427 491 45,000  Level Albuquerque Center
Tue 02:08:47 PM 34.7619 -106.6375 258° West 432 497 45,000  Level Albuquerque Center
Tue 02:09:48 PM 34.7322 -106.7811 256° West 434 499 45,000  Level Albuquerque Center
Tue 02:10:50 PM 34.6914 -106.9258 251° West 435 501 45,000  Level Albuquerque Center
Tue 02:11:52 PM 34.6536 -107.0664 252° West 435 501 45,000  Level Albuquerque Center
Tue 02:12:54 PM 34.6131 -107.2164 252° West 436 502 45,000  Level Albuquerque Center
Tue 02:13:56 PM 34.5756 -107.3492 251° West 436 502 45,000  Level Albuquerque Center
Tue 02:14:58 PM 34.5367 -107.4872 251° West 440 506 45,000  Level Albuquerque Center
Tue 02:16:00 PM 34.4983 -107.6258 251° West 439 505 45,000  Level Albuquerque Center
Tue 02:17:02 PM 34.4594 -107.7639 251° West 437 503 45,000  Level Albuquerque Center
Tue 02:18:04 PM 34.4131 -107.9297 251° West 434 499 45,000  Level Albuquerque Center
Tue 02:19:05 PM 34.3731 -108.0669 251° West 434 499 45,000  Level Albuquerque Center
Tue 02:20:07 PM 34.3347 -108.2064 252° West 435 501 45,000  Level Albuquerque Center
Tue 02:21:09 PM 34.2942 -108.3444 250° West 435 501 45,000  Level Albuquerque Center
Tue 02:22:11 PM 34.2522 -108.4933 251° West 435 501 45,000  Level Albuquerque Center
Tue 02:23:13 PM 34.2125 -108.6286 250° West 435 501 45,000  Level Albuquerque Center
Tue 02:24:15 PM 34.1728 -108.7667 251° West 434 499 45,000  Level Albuquerque Center
Tue 02:25:17 PM 34.1283 -108.9200 251° West 435 501 45,000  Level Albuquerque Center
Tue 02:26:19 PM 34.0900 -109.0525 251° West 435 501 45,000  Level Albuquerque Center
Tue 02:27:20 PM 34.0442 -109.2064 250° West 435 501 45,000  Level Albuquerque Center
Tue 02:28:22 PM 34.0039 -109.3422 250° West 435 501 45,000  Level Albuquerque Center
Tue 02:29:24 PM 33.9636 -109.4783 250° West 435 501 45,000  Level Albuquerque Center
Tue 02:30:26 PM 33.9219 -109.6178 250° West 438 504 45,000  Level Albuquerque Center
Tue 02:31:28 PM 33.8800 -109.7561 250° West 439 505 45,000  Level Albuquerque Center
Tue 02:32:30 PM 33.8306 -109.9206 250° West 439 505 45,000  Level Albuquerque Center
Tue 02:33:32 PM 33.7889 -110.0581 250° West 439 505 45,000  Level Albuquerque Center
Tue 02:34:33 PM 33.7464 -110.1942 249° West 439 505 45,000  Level Albuquerque Center
Tue 02:35:35 PM 33.7039 -110.3303 249° West 439 505 45,000  Level Albuquerque Center
Tue 02:36:37 PM 33.6625 -110.4689 250° West 438 504 45,000  Level Albuquerque Center
Tue 02:37:39 PM 33.6206 -110.6064 250° West 438 504 45,000  Level Albuquerque Center
Tue 02:38:41 PM 33.5783 -110.7417 249° West 437 503 45,000  Level Albuquerque Center
Tue 02:39:42 PM 33.5278 -110.9047 250° West 437 503 45,000  Level Albuquerque Center
Tue 02:40:44 PM 33.4858 -111.0400 250° West 435 501 45,000  Level Albuquerque Center
Tue 02:41:46 PM 33.4422 -111.1750 249° West 434 499 45,000  Level Albuquerque Center
Tue 02:42:48 PM 33.3989 -111.3103 249° West 434 499 45,000  Level Albuquerque Center
Tue 02:43:50 PM 33.3558 -111.4436 249° West 433 498 45,000  Level Albuquerque Center
Tue 02:44:51 PM 33.3133 -111.5783 249° West 433 498 45,000  Level Albuquerque Center
Tue 02:45:53 PM 33.2694 -111.7144 249° West 434 499 45,000  Level Albuquerque Center
Tue 02:46:55 PM 33.2264 -111.8481 249° West 434 499 45,000  Level Albuquerque Center
Tue 02:47:57 PM 33.1833 -111.9819 249° West 433 498 45,000  Level Albuquerque Center
Tue 02:48:58 PM 33.1300 -112.1417 248° West 433 498 45,000  Level Albuquerque Center
Tue 02:50:00 PM 33.0892 -112.2675 249° West 432 497 45,000  Level Albuquerque Center
Tue 02:51:02 PM 33.0464 -112.4000 249° West 432 497 45,000  Level Albuquerque Center
Tue 02:52:03 PM 33.0025 -112.5328 249° West 431 496 45,000  Level Albuquerque Center
Tue 02:53:05 PM 32.9600 -112.6636 249° West 431 496 45,000 -242 Level Albuquerque Center
Tue 02:54:07 PM 32.9361 -112.8317 260° West 430 495 44,500 -726 Descending Albuquerque Center
Tue 02:55:09 PM 32.9161 -112.9769 261° West 443 510 43,500 -976 Descending Albuquerque Center
Tue 02:56:10 PM 32.8964 -113.1261 261° West 453 521 42,500 -1,024 Descending Albuquerque Center
Tue 02:57:12 PM 32.8753 -113.2719 260° West 454 522 41,400 -1,016 Descending Albuquerque Center
Tue 02:58:14 PM 32.8567 -113.4128 261° West 442 509 40,400 -2,032 Descending Albuquerque Center
Tue 02:59:16 PM 32.8325 -113.5861 261° West 443 510 37,200 -2,786 Descending Albuquerque Center
Tue 03:00:06 PM 32.8122 -113.7022 258° West 454 522 35,200 -1,714 Descending Los Angeles Center
Tue 03:01:08 PM 32.7922 -113.8450 261° West 446 513 34,000 -576 Descending Los Angeles Center
Tue 03:02:11 PM 32.7725 -113.9908 261° West 444 511 34,000  Level Los Angeles Center
Tue 03:03:13 PM 32.7711 -114.1431 269° West 455 524 34,000  Level Los Angeles Center
Tue 03:04:15 PM 32.7703 -114.3264 270° West 461 531 34,000  Level Los Angeles Center
Tue 03:05:17 PM 32.7964 -114.4794 282° West 469 540 34,000  Level Los Angeles Center
Tue 03:06:19 PM 32.8197 -114.6328 280° West 472 543 34,000  Level Los Angeles Center
Tue 03:07:21 PM 32.8456 -114.7867 281° West 472 543 34,000  Level Los Angeles Center
Tue 03:08:23 PM 32.8703 -114.9406 281° West 473 544 34,000 -484 Level Los Angeles Center
Tue 03:09:25 PM 32.8889 -115.0939 278° West 473 544 33,000 -1,113 Descending Los Angeles Center
Tue 03:10:27 PM 32.8894 -115.2772 270° West 465 535 31,700 -1,113 Descending Los Angeles Center
Tue 03:11:29 PM 32.8822 -115.4250 267° West 452 520 30,700 -1,016 Descending Los Angeles Center
Tue 03:12:31 PM 32.8608 -115.5692 260° West 449 517 29,600 -1,742 Descending Los Angeles Center
Tue 03:13:33 PM 32.8419 -115.7100 261° West 436 502 27,100 -2,758 Descending Los Angeles Center
Tue 03:14:35 PM 32.8244 -115.8483 261° West 428 493 23,900 -3,048 Descending Los Angeles Center
Tue 03:15:37 PM 32.8069 -115.9811 261° West 411 473 20,800 -3,194 Descending Los Angeles Center
Tue 03:16:39 PM 32.7872 -116.1336 261° West 390 449 17,300 -2,710 Descending Los Angeles Center
Tue 03:17:41 PM 32.7717 -116.2492 261° West 356 410 15,200 -1,984 Descending Los Angeles Center
Tue 03:18:43 PM 32.7567 -116.3533 260° West 318 366 13,200 -2,226 Descending Los Angeles Center
Tue 03:19:45 PM 32.7411 -116.4578 260° West 315 362 10,600 -2,032 Descending Los Angeles Center
Tue 03:20:47 PM 32.7269 -116.5544 260° West 299 344 9,000 -1,694 Descending Los Angeles Center
Tue 03:21:49 PM 32.7142 -116.6458 261° West 285 328 7,100 -1,500 Descending Los Angeles Center
Tue 03:22:51 PM 32.7003 -116.7389 260° West 282 325 5,900 -1,065 Descending Los Angeles Center
Tue 03:23:53 PM 32.6878 -116.8236 260° West 271 312 4,900 -1,074 Descending Los Angeles Center
Tue 03:24:26 PM 32.6833 -116.8833 265° West 240 276 4,200 -710 Descending Southern California TRACON
Tue 03:25:26 PM 32.6667 -116.9500 253° West 214 246 3,800 -700 Descending Southern California TRACON
Tue 03:26:26 PM 32.6833 -117.0167 287° West 194 223 2,800 -800 Descending Southern California TRACON
Tue 03:27:26 PM 32.7000 -117.0667 292° West 144 166 2,200 -579 Descending Southern California TRACON
Tue 03:28:20 PM 32.7167 -117.1000 301° West 135 155 1,700 -813 Descending Southern California TRACON
Tue 03:29:02 PM 32.7181 -117.1253 274° West 134 154 900 -808 Descending Los Angeles Center
Tue 03:30:04 PM 32.7275 -117.1653 286° West 131 151 300 -581 Descending Los Angeles Center
Tue 03:32:00 PM 32.7333 -117.1833 281° West  Level FlightAware Approximate

Login

Don't have an account? Register now (free) for customized features, flight alerts, and more!